sensor_id;sensor_type;location;lat;lon;timestamp;pressure;altitude;pressure_sealevel;temperature;humidity
6680;BME280;3376;42.664;23.346;2023-05-29T00:02:24;94332.31;;;14.30;100.00
6680;BME280;3376;42.664;23.346;2023-05-29T00:04:51;94330.09;;;14.27;100.00
6680;BME280;3376;42.664;23.346;2023-05-29T00:07:18;94331.69;;;14.28;100.00
6680;BME280;3376;42.664;23.346;2023-05-29T00:09:46;94330.31;;;14.26;100.00
6680;BME280;3376;42.664;23.346;2023-05-29T00:12:13;94337.28;;;14.25;100.00
6680;BME280;3376;42.664;23.346;2023-05-29T00:14:40;94323.06;;;14.21;100.00
6680;BME280;3376;42.664;23.346;2023-05-29T00:17:07;94338.13;;;14.32;100.00
6680;BME280;3376;42.664;23.346;2023-05-29T00:19:34;94338.53;;;14.29;100.00
6680;BME280;3376;42.664;23.346;2023-05-29T00:22:01;94318.28;;;14.31;100.00
6680;BME280;3376;42.664;23.346;2023-05-29T00:24:28;94338.50;;;14.42;100.00
6680;BME280;3376;42.664;23.346;2023-05-29T00:26:56;94343.72;;;14.36;100.00
6680;BME280;3376;42.664;23.346;2023-05-29T00:29:22;94340.53;;;14.27;100.00
6680;BME280;3376;42.664;23.346;2023-05-29T00:31:49;94337.09;;;14.20;100.00
6680;BME280;3376;42.664;23.346;2023-05-29T00:34:18;94330.28;;;14.12;100.00
6680;BME280;3376;42.664;23.346;2023-05-29T00:36:45;94331.50;;;14.10;100.00
6680;BME280;3376;42.664;23.346;2023-05-29T00:39:13;94329.88;;;14.09;100.00
6680;BME280;3376;42.664;23.346;2023-05-29T00:41:39;94329.47;;;14.05;100.00
6680;BME280;3376;42.664;23.346;2023-05-29T00:44:07;94335.91;;;13.96;100.00
6680;BME280;3376;42.664;23.346;2023-05-29T00:46:34;94335.50;;;14.06;100.00
6680;BME280;3376;42.664;23.346;2023-05-29T00:49:02;94345.09;;;13.99;100.00
6680;BME280;3376;42.664;23.346;2023-05-29T00:51:31;94329.50;;;13.92;100.00
6680;BME280;3376;42.664;23.346;2023-05-29T00:53:58;94317.09;;;13.81;100.00
6680;BME280;3376;42.664;23.346;2023-05-29T00:56:26;94329.50;;;13.92;100.00
6680;BME280;3376;42.664;23.346;2023-05-29T00:58:52;94323.69;;;13.84;100.00
6680;BME280;3376;42.664;23.346;2023-05-29T01:01:21;94324.69;;;13.89;100.00
6680;BME280;3376;42.664;23.346;2023-05-29T01:03:48;94328.09;;;13.90;100.00
6680;BME280;3376;42.664;23.346;2023-05-29T01:06:15;94327.66;;;13.80;100.00
6680;BME280;3376;42.664;23.346;2023-05-29T01:08:42;94315.88;;;13.64;100.00
6680;BME280;3376;42.664;23.346;2023-05-29T01:11:15;94324.47;;;13.65;100.00
6680;BME280;3376;42.664;23.346;2023-05-29T01:13:45;94317.47;;;13.72;100.00
6680;BME280;3376;42.664;23.346;2023-05-29T01:16:16;94330.28;;;13.67;100.00
6680;BME280;3376;42.664;23.346;2023-05-29T01:18:51;94330.47;;;13.72;100.00
6680;BME280;3376;42.664;23.346;2023-05-29T01:21:27;94331.28;;;13.79;100.00
6680;BME280;3376;42.664;23.346;2023-05-29T01:24:10;94333.88;;;13.79;100.00
6680;BME280;3376;42.664;23.346;2023-05-29T01:26:48;94318.28;;;13.72;100.00
6680;BME280;3376;42.664;23.346;2023-05-29T01:29:19;94330.69;;;13.77;100.00
6680;BME280;3376;42.664;23.346;2023-05-29T01:31:50;94327.47;;;13.62;100.00
6680;BME280;3376;42.664;23.346;2023-05-29T01:34:18;94327.47;;;13.68;100.00
6680;BME280;3376;42.664;23.346;2023-05-29T01:36:45;94329.88;;;13.70;100.00
6680;BME280;3376;42.664;23.346;2023-05-29T01:39:13;94319.84;;;13.60;100.00
6680;BME280;3376;42.664;23.346;2023-05-29T01:41:40;94323.28;;;13.61;100.00
6680;BME280;3376;42.664;23.346;2023-05-29T01:44:10;94333.69;;;13.61;100.00
6680;BME280;3376;42.664;23.346;2023-05-29T01:46:38;94325.47;;;13.64;100.00
6680;BME280;3376;42.664;23.346;2023-05-29T01:49:06;94312.00;;;13.41;100.00
6680;BME280;3376;42.664;23.346;2023-05-29T01:51:33;94326.03;;;13.33;100.00
6680;BME280;3376;42.664;23.346;2023-05-29T01:54:01;94326.22;;;13.32;100.00
6680;BME280;3376;42.664;23.346;2023-05-29T01:56:28;94324.19;;;13.34;100.00
6680;BME280;3376;42.664;23.346;2023-05-29T01:58:56;94322.59;;;13.33;100.00
6680;BME280;3376;42.664;23.346;2023-05-29T02:01:25;94306.97;;;13.20;100.00
6680;BME280;3376;42.664;23.346;2023-05-29T02:03:51;94314.19;;;13.24;100.00
6680;BME280;3376;42.664;23.346;2023-05-29T02:06:19;94258.63;;;12.84;100.00
6680;BME280;3376;42.664;23.346;2023-05-29T02:08:45;94278.28;;;13.00;100.00
6680;BME280;3376;42.664;23.346;2023-05-29T02:11:13;94329.78;;;13.18;100.00
6680;BME280;3376;42.664;23.346;2023-05-29T02:13:41;94310.13;;;13.09;100.00
6680;BME280;3376;42.664;23.346;2023-05-29T02:16:07;94315.34;;;13.09;100.00
6680;BME280;3376;42.664;23.346;2023-05-29T02:18:35;94308.91;;;13.05;100.00
6680;BME280;3376;42.664;23.346;2023-05-29T02:21:02;94172.44;;;12.21;100.00
6680;BME280;3376;42.664;23.346;2023-05-29T02:23:29;94290.47;;;12.99;100.00
6680;BME280;3376;42.664;23.346;2023-05-29T02:25:56;94309.94;;;13.17;100.00
6680;BME280;3376;42.664;23.346;2023-05-29T02:28:22;94309.78;;;13.25;100.00
6680;BME280;3376;42.664;23.346;2023-05-29T02:30:50;94310.56;;;13.19;100.00
6680;BME280;3376;42.664;23.346;2023-05-29T02:33:16;94314.56;;;13.15;100.00
6680;BME280;3376;42.664;23.346;2023-05-29T02:35:44;94324.59;;;13.31;100.00
6680;BME280;3376;42.664;23.346;2023-05-29T02:38:11;94325.22;;;13.39;100.00
6680;BME280;3376;42.664;23.346;2023-05-29T02:40:38;94321.44;;;13.42;100.00
6680;BME280;3376;42.664;23.346;2023-05-29T02:43:05;94314.41;;;13.36;100.00
6680;BME280;3376;42.664;23.346;2023-05-29T02:45:32;94328.84;;;13.38;100.00
6680;BME280;3376;42.664;23.346;2023-05-29T02:47:59;94321.00;;;13.32;100.00
6680;BME280;3376;42.664;23.346;2023-05-29T02:50:26;94324.25;;;13.40;100.00
6680;BME280;3376;42.664;23.346;2023-05-29T02:52:54;94317.22;;;13.47;100.00
6680;BME280;3376;42.664;23.346;2023-05-29T02:55:21;94320.63;;;13.41;100.00
6680;BME280;3376;42.664;23.346;2023-05-29T02:57:48;94315.41;;;13.35;100.00
6680;BME280;3376;42.664;23.346;2023-05-29T03:00:18;94307.59;;;13.28;100.00
6680;BME280;3376;42.664;23.346;2023-05-29T03:02:46;94321.81;;;13.39;100.00
6680;BME280;3376;42.664;23.346;2023-05-29T03:05:12;94254.88;;;12.93;100.00
6680;BME280;3376;42.664;23.346;2023-05-29T03:07:39;94326.03;;;13.40;100.00
6680;BME280;3376;42.664;23.346;2023-05-29T03:10:08;94328.44;;;13.48;100.00
6680;BME280;3376;42.664;23.346;2023-05-29T03:12:35;94333.69;;;13.61;100.00
6680;BME280;3376;42.664;23.346;2023-05-29T03:15:02;94328.69;;;13.66;100.00
6680;BME280;3376;42.664;23.346;2023-05-29T03:17:29;94318.47;;;13.64;100.00
6680;BME280;3376;42.664;23.346;2023-05-29T03:19:56;94323.06;;;13.62;100.00
6680;BME280;3376;42.664;23.346;2023-05-29T03:22:22;94331.88;;;13.68;100.00
6680;BME280;3376;42.664;23.346;2023-05-29T03:24:49;94331.09;;;13.74;100.00
6680;BME280;3376;42.664;23.346;2023-05-29T03:27:17;94332.69;;;13.81;100.00
6680;BME280;3376;42.664;23.346;2023-05-29T03:29:44;94325.88;;;13.87;100.00
6680;BME280;3376;42.664;23.346;2023-05-29T03:32:11;94337.91;;;14.01;100.00
6680;BME280;3376;42.664;23.346;2023-05-29T03:34:37;94339.09;;;13.92;100.00
6680;BME280;3376;42.664;23.346;2023-05-29T03:37:05;94331.88;;;13.94;100.00
6680;BME280;3376;42.664;23.346;2023-05-29T03:39:31;94352.53;;;14.15;100.00
6680;BME280;3376;42.664;23.346;2023-05-29T03:41:58;94302.84;;;13.84;100.00
6680;BME280;3376;42.664;23.346;2023-05-29T03:44:26;94365.94;;;14.25;100.00
6680;BME280;3376;42.664;23.346;2023-05-29T03:46:53;94362.97;;;14.28;100.00
6680;BME280;3376;42.664;23.346;2023-05-29T03:49:20;94321.66;;;13.99;100.00
6680;BME280;3376;42.664;23.346;2023-05-29T03:51:47;94339.09;;;14.18;100.00
6680;BME280;3376;42.664;23.346;2023-05-29T03:54:13;94358.13;;;14.38;100.00
6680;BME280;3376;42.664;23.346;2023-05-29T03:56:40;94328.09;;;14.23;100.00
6680;BME280;3376;42.664;23.346;2023-05-29T03:59:07;94366.34;;;14.42;100.00
6680;BME280;3376;42.664;23.346;2023-05-29T04:01:35;94364.34;;;14.44;100.00
6680;BME280;3376;42.664;23.346;2023-05-29T04:04:02;94362.72;;;14.56;100.00
6680;BME280;3376;42.664;23.346;2023-05-29T04:06:29;94364.34;;;14.57;100.00
6680;BME280;3376;42.664;23.346;2023-05-29T04:08:55;94368.75;;;14.63;100.00
6680;BME280;3376;42.664;23.346;2023-05-29T04:11:22;94353.31;;;14.61;100.00
6680;BME280;3376;42.664;23.346;2023-05-29T04:13:49;94377.53;;;14.81;100.00
6680;BME280;3376;42.664;23.346;2023-05-29T04:16:16;94382.53;;;14.89;100.00
6680;BME280;3376;42.664;23.346;2023-05-29T04:18:44;94380.28;;;14.99;100.00
6680;BME280;3376;42.664;23.346;2023-05-29T04:21:11;94382.84;;;15.12;100.00
6680;BME280;3376;42.664;23.346;2023-05-29T04:23:37;94374.19;;;15.25;100.00
6680;BME280;3376;42.664;23.346;2023-05-29T04:26:04;94385.78;;;15.36;100.00
6680;BME280;3376;42.664;23.346;2023-05-29T04:28:31;94377.34;;;15.40;100.00
6680;BME280;3376;42.664;23.346;2023-05-29T04:30:58;94369.31;;;15.42;100.00
6680;BME280;3376;42.664;23.346;2023-05-29T04:33:25;94376.06;;;15.56;100.00
6680;BME280;3376;42.664;23.346;2023-05-29T04:35:55;94378.41;;;15.64;100.00
6680;BME280;3376;42.664;23.346;2023-05-29T04:38:21;94355.56;;;15.59;100.00
6680;BME280;3376;42.664;23.346;2023-05-29T04:40:50;94374.13;;;15.76;100.00
6680;BME280;3376;42.664;23.346;2023-05-29T04:43:17;94395.31;;;15.99;100.00
6680;BME280;3376;42.664;23.346;2023-05-29T04:45:44;94385.34;;;16.14;100.00
6680;BME280;3376;42.664;23.346;2023-05-29T04:48:11;94394.25;;;16.31;100.00
6680;BME280;3376;42.664;23.346;2023-05-29T04:50:37;94383.09;;;16.42;100.00
6680;BME280;3376;42.664;23.346;2023-05-29T04:53:05;94393.63;;;16.60;100.00
6680;BME280;3376;42.664;23.346;2023-05-29T04:55:32;94397.75;;;16.74;100.00
6680;BME280;3376;42.664;23.346;2023-05-29T04:57:59;94396.09;;;16.80;100.00
6680;BME280;3376;42.664;23.346;2023-05-29T05:00:26;94396.38;;;16.90;100.00
6680;BME280;3376;42.664;23.346;2023-05-29T05:02:53;94403.84;;;17.04;100.00
6680;BME280;3376;42.664;23.346;2023-05-29T05:05:19;94403.00;;;17.28;100.00
6680;BME280;3376;42.664;23.346;2023-05-29T05:07:46;94418.66;;;17.53;100.00
6680;BME280;3376;42.664;23.346;2023-05-29T05:10:14;94413.59;;;17.70;100.00
6680;BME280;3376;42.664;23.346;2023-05-29T05:12:41;94416.88;;;17.95;100.00
6680;BME280;3376;42.664;23.346;2023-05-29T05:15:09;94422.84;;;18.02;100.00
6680;BME280;3376;42.664;23.346;2023-05-29T05:17:36;94387.41;;;17.99;100.00
6680;BME280;3376;42.664;23.346;2023-05-29T05:20:03;94433.41;;;18.36;100.00
6680;BME280;3376;42.664;23.346;2023-05-29T05:22:31;94432.78;;;18.41;100.00
6680;BME280;3376;42.664;23.346;2023-05-29T05:24:58;94426.63;;;18.47;100.00
6680;BME280;3376;42.664;23.346;2023-05-29T05:27:27;94419.69;;;18.52;100.00
6680;BME280;3376;42.664;23.346;2023-05-29T05:29:53;94275.16;;;17.55;100.00
6680;BME280;3376;42.664;23.346;2023-05-29T05:32:20;94434.88;;;18.62;100.00
6680;BME280;3376;42.664;23.346;2023-05-29T05:34:47;94431.78;;;18.53;100.00
6680;BME280;3376;42.664;23.346;2023-05-29T05:37:14;94419.94;;;18.51;100.00
6680;BME280;3376;42.664;23.346;2023-05-29T05:39:40;94429.50;;;18.57;100.00
6680;BME280;3376;42.664;23.346;2023-05-29T05:42:07;94432.69;;;18.59;100.00
6680;BME280;3376;42.664;23.346;2023-05-29T05:44:35;94423.91;;;18.65;100.00
6680;BME280;3376;42.664;23.346;2023-05-29T05:47:02;94433.97;;;18.68;100.00
6680;BME280;3376;42.664;23.346;2023-05-29T05:49:29;94436.59;;;18.80;100.00
6680;BME280;3376;42.664;23.346;2023-05-29T05:51:56;94420.41;;;18.71;100.00
6680;BME280;3376;42.664;23.346;2023-05-29T05:54:22;94441.75;;;19.09;100.00
6680;BME280;3376;42.664;23.346;2023-05-29T05:56:49;94416.03;;;19.11;100.00
6680;BME280;3376;42.664;23.346;2023-05-29T05:59:16;94433.63;;;19.45;100.00
6680;BME280;3376;42.664;23.346;2023-05-29T06:01:44;94437.63;;;19.36;100.00
6680;BME280;3376;42.664;23.346;2023-05-29T06:04:10;94435.56;;;19.38;100.00
6680;BME280;3376;42.664;23.346;2023-05-29T06:06:37;94435.22;;;19.46;100.00
6680;BME280;3376;42.664;23.346;2023-05-29T06:09:04;94437.28;;;19.44;100.00
6680;BME280;3376;42.664;23.346;2023-05-29T06:11:31;94432.59;;;19.46;100.00
6680;BME280;3376;42.664;23.346;2023-05-29T06:13:59;94426.53;;;19.46;100.00
6680;BME280;3376;42.664;23.346;2023-05-29T06:16:25;94432.38;;;19.36;100.00
6680;BME280;3376;42.664;23.346;2023-05-29T06:18:54;94437.38;;;19.49;100.00
6680;BME280;3376;42.664;23.346;2023-05-29T06:21:21;94425.50;;;19.35;100.00
6680;BME280;3376;42.664;23.346;2023-05-29T06:23:47;94445.03;;;19.51;100.00
6680;BME280;3376;42.664;23.346;2023-05-29T06:26:14;94442.47;;;19.67;100.00
6680;BME280;3376;42.664;23.346;2023-05-29T06:28:41;94453.19;;;20.06;100.00
6680;BME280;3376;42.664;23.346;2023-05-29T06:31:07;94454.44;;;20.43;100.00
6680;BME280;3376;42.664;23.346;2023-05-29T06:33:35;94452.16;;;20.63;100.00
6680;BME280;3376;42.664;23.346;2023-05-29T06:36:04;94451.75;;;20.71;100.00
6680;BME280;3376;42.664;23.346;2023-05-29T06:38:32;94453.50;;;20.82;100.00
6680;BME280;3376;42.664;23.346;2023-05-29T06:40:58;94454.31;;;20.82;99.40
6680;BME280;3376;42.664;23.346;2023-05-29T06:43:25;94448.41;;;20.92;98.07
6680;BME280;3376;42.664;23.346;2023-05-29T06:45:52;94454.06;;;20.67;100.00
6680;BME280;3376;42.664;23.346;2023-05-29T06:48:18;94447.13;;;20.78;99.76
6680;BME280;3376;42.664;23.346;2023-05-29T06:50:46;94448.16;;;20.93;97.69
6680;BME280;3376;42.664;23.346;2023-05-29T06:53:14;94445.38;;;21.00;96.85
6680;BME280;3376;42.664;23.346;2023-05-29T06:55:41;94449.28;;;21.14;95.77
6680;BME280;3376;42.664;23.346;2023-05-29T06:58:08;94456.75;;;21.22;94.38
6680;BME280;3376;42.664;23.346;2023-05-29T07:00:35;94351.97;;;20.53;94.11
6680;BME280;3376;42.664;23.346;2023-05-29T07:05:47;94431.41;;;20.83;97.95
6680;BME280;3376;42.664;23.346;2023-05-29T07:08:15;94448.88;;;21.06;97.93
6680;BME280;3376;42.664;23.346;2023-05-29T07:10:41;94458.69;;;21.27;95.72
6680;BME280;3376;42.664;23.346;2023-05-29T07:13:08;94450.47;;;21.23;95.46
6680;BME280;3376;42.664;23.346;2023-05-29T07:15:37;94460.16;;;21.39;95.21
6680;BME280;3376;42.664;23.346;2023-05-29T07:18:04;94451.41;;;21.34;94.53
6680;BME280;3376;42.664;23.346;2023-05-29T07:20:31;94454.38;;;21.59;90.74
6680;BME280;3376;42.664;23.346;2023-05-29T07:22:57;94459.16;;;21.40;93.54
6680;BME280;3376;42.664;23.346;2023-05-29T07:25:25;94453.94;;;21.45;96.61
6680;BME280;3376;42.664;23.346;2023-05-29T07:27:52;94439.00;;;21.34;93.26
6680;BME280;3376;42.664;23.346;2023-05-29T07:30:19;94432.22;;;21.38;91.51
6680;BME280;3376;42.664;23.346;2023-05-29T07:32:46;94449.78;;;21.49;92.95
6680;BME280;3376;42.664;23.346;2023-05-29T07:35:12;94454.31;;;21.54;94.48
6680;BME280;3376;42.664;23.346;2023-05-29T07:37:39;94459.22;;;21.45;93.62
6680;BME280;3376;42.664;23.346;2023-05-29T07:40:06;94421.72;;;21.22;93.31
6680;BME280;3376;42.664;23.346;2023-05-29T07:42:35;94462.66;;;21.46;93.75
6680;BME280;3376;42.664;23.346;2023-05-29T07:45:03;94366.59;;;20.82;93.64
6680;BME280;3376;42.664;23.346;2023-05-29T07:47:29;94450.69;;;21.38;93.88
6680;BME280;3376;42.664;23.346;2023-05-29T07:49:56;94453.94;;;21.45;94.10
6680;BME280;3376;42.664;23.346;2023-05-29T07:52:23;94425.13;;;21.39;92.50
6680;BME280;3376;42.664;23.346;2023-05-29T07:54:49;94454.19;;;21.65;93.41
6680;BME280;3376;42.664;23.346;2023-05-29T07:57:16;94439.81;;;21.56;92.20
6680;BME280;3376;42.664;23.346;2023-05-29T07:59:44;94446.16;;;21.55;92.47
6680;BME280;3376;42.664;23.346;2023-05-29T08:02:14;94339.34;;;20.93;92.02
6680;BME280;3376;42.664;23.346;2023-05-29T08:04:41;94448.78;;;21.55;93.15
6680;BME280;3376;42.664;23.346;2023-05-29T08:07:08;94458.00;;;21.53;93.76
6680;BME280;3376;42.664;23.346;2023-05-29T08:09:35;94452.34;;;21.44;94.24
6680;BME280;3376;42.664;23.346;2023-05-29T08:12:02;94415.91;;;21.20;96.18
6680;BME280;3376;42.664;23.346;2023-05-29T08:14:29;94456.09;;;21.48;93.19
6680;BME280;3376;42.664;23.346;2023-05-29T08:16:57;94458.72;;;21.48;94.77
6680;BME280;3376;42.664;23.346;2023-05-29T08:19:24;94430.56;;;21.75;93.48
6680;BME280;3376;42.664;23.346;2023-05-29T08:21:51;94457.44;;;22.42;91.16
6680;BME280;3376;42.664;23.346;2023-05-29T08:24:18;94368.03;;;22.19;84.98
6680;BME280;3376;42.664;23.346;2023-05-29T08:26:45;94468.03;;;23.00;86.84
6680;BME280;3376;42.664;23.346;2023-05-29T08:29:12;94466.16;;;22.96;85.98
6680;BME280;3376;42.664;23.346;2023-05-29T08:31:39;94475.25;;;23.10;82.99
6680;BME280;3376;42.664;23.346;2023-05-29T08:34:07;94471.28;;;23.12;83.63
6680;BME280;3376;42.664;23.346;2023-05-29T08:36:35;94459.03;;;22.96;85.38
6680;BME280;3376;42.664;23.346;2023-05-29T08:39:02;94466.03;;;22.81;88.77
6680;BME280;3376;42.664;23.346;2023-05-29T08:41:34;94471.88;;;22.83;88.42
6680;BME280;3376;42.664;23.346;2023-05-29T08:44:07;94460.94;;;22.69;89.17
6680;BME280;3376;42.664;23.346;2023-05-29T08:46:36;94457.16;;;22.97;85.73
6680;BME280;3376;42.664;23.346;2023-05-29T08:49:04;94453.03;;;23.11;88.21
6680;BME280;3376;42.664;23.346;2023-05-29T08:51:37;94437.44;;;23.46;83.30
6680;BME280;3376;42.664;23.346;2023-05-29T08:54:09;94443.94;;;23.80;82.97
6680;BME280;3376;42.664;23.346;2023-05-29T08:56:36;94435.44;;;23.73;79.09
6680;BME280;3376;42.664;23.346;2023-05-29T08:59:04;94431.78;;;23.84;80.11
6680;BME280;3376;42.664;23.346;2023-05-29T09:01:31;94436.00;;;23.80;80.60
6680;BME280;3376;42.664;23.346;2023-05-29T09:03:58;94420.50;;;23.47;77.30
6680;BME280;3376;42.664;23.346;2023-05-29T09:06:25;94429.56;;;23.56;77.31
6680;BME280;3376;42.664;23.346;2023-05-29T09:08:53;94418.97;;;23.56;76.76
6680;BME280;3376;42.664;23.346;2023-05-29T09:11:21;94416.94;;;23.78;71.38
6680;BME280;3376;42.664;23.346;2023-05-29T09:13:48;94424.81;;;24.25;71.91
6680;BME280;3376;42.664;23.346;2023-05-29T09:16:16;94427.75;;;24.38;71.67
6680;BME280;3376;42.664;23.346;2023-05-29T09:18:43;94418.13;;;24.02;74.74
6680;BME280;3376;42.664;23.346;2023-05-29T09:21:25;94326.31;;;23.31;72.87
6680;BME280;3376;42.664;23.346;2023-05-29T09:23:54;94410.47;;;24.11;70.13
6680;BME280;3376;42.664;23.346;2023-05-29T09:26:21;94404.72;;;24.44;70.20
6680;BME280;3376;42.664;23.346;2023-05-29T09:28:48;94395.47;;;24.72;67.63
6680;BME280;3376;42.664;23.346;2023-05-29T09:31:15;94385.91;;;24.51;69.27
6680;BME280;3376;42.664;23.346;2023-05-29T09:33:47;94397.53;;;24.55;67.01
6680;BME280;3376;42.664;23.346;2023-05-29T09:36:19;94393.59;;;24.52;67.29
6680;BME280;3376;42.664;23.346;2023-05-29T09:38:47;94393.03;;;24.20;70.53
6680;BME280;3376;42.664;23.346;2023-05-29T09:41:20;94393.78;;;24.10;70.75
6680;BME280;3376;42.664;23.346;2023-05-29T09:43:48;94375.59;;;23.62;70.37
6680;BME280;3376;42.664;23.346;2023-05-29T09:46:15;94372.78;;;23.84;70.43
6680;BME280;3376;42.664;23.346;2023-05-29T09:48:43;94383.56;;;23.67;72.70
6680;BME280;3376;42.664;23.346;2023-05-29T09:51:19;94383.78;;;23.56;72.42
6680;BME280;3376;42.664;23.346;2023-05-29T09:53:47;94367.84;;;23.41;75.57
6680;BME280;3376;42.664;23.346;2023-05-29T09:56:17;94379.88;;;23.21;73.52
6680;BME280;3376;42.664;23.346;2023-05-29T09:58:44;94383.97;;;22.97;73.49
6680;BME280;3376;42.664;23.346;2023-05-29T10:01:13;94376.03;;;22.92;72.76
6680;BME280;3376;42.664;23.346;2023-05-29T10:03:41;94369.75;;;23.03;72.87
6680;BME280;3376;42.664;23.346;2023-05-29T10:06:10;94363.25;;;23.26;70.66
6680;BME280;3376;42.664;23.346;2023-05-29T10:08:42;94369.25;;;23.53;70.46
6680;BME280;3376;42.664;23.346;2023-05-29T10:11:13;94377.53;;;23.77;69.14
6680;BME280;3376;42.664;23.346;2023-05-29T10:13:45;94378.34;;;23.77;70.30
6680;BME280;3376;42.664;23.346;2023-05-29T10:16:15;94357.31;;;23.51;72.11
6680;BME280;3376;42.664;23.346;2023-05-29T10:18:50;94370.47;;;23.31;71.19
6680;BME280;3376;42.664;23.346;2023-05-29T10:21:18;94376.56;;;23.31;71.55
6680;BME280;3376;42.664;23.346;2023-05-29T10:23:47;94366.81;;;23.47;71.67
6680;BME280;3376;42.664;23.346;2023-05-29T10:26:19;94374.00;;;23.51;70.54
6680;BME280;3376;42.664;23.346;2023-05-29T10:28:55;94362.69;;;23.76;67.39
6680;BME280;3376;42.664;23.346;2023-05-29T10:31:27;94365.47;;;24.11;67.41
6680;BME280;3376;42.664;23.346;2023-05-29T10:34:08;94366.53;;;24.20;67.47
6680;BME280;3376;42.664;23.346;2023-05-29T10:36:41;94365.75;;;24.19;65.94
6680;BME280;3376;42.664;23.346;2023-05-29T10:39:10;94355.13;;;23.99;67.36
6680;BME280;3376;42.664;23.346;2023-05-29T10:41:37;94365.72;;;24.09;67.73
6680;BME280;3376;42.664;23.346;2023-05-29T10:44:40;94366.75;;;24.08;65.39
6680;BME280;3376;42.664;23.346;2023-05-29T10:47:07;94362.81;;;24.01;64.48
6680;BME280;3376;42.664;23.346;2023-05-29T10:49:36;94366.41;;;23.80;65.13
6680;BME280;3376;42.664;23.346;2023-05-29T10:52:04;94363.44;;;23.61;65.44
6680;BME280;3376;42.664;23.346;2023-05-29T10:54:49;94350.16;;;23.46;66.14
6680;BME280;3376;42.664;23.346;2023-05-29T10:57:18;94355.47;;;23.46;66.95
6680;BME280;3376;42.664;23.346;2023-05-29T10:59:48;94236.31;;;22.54;69.65
6680;BME280;3376;42.664;23.346;2023-05-29T11:02:23;94331.94;;;22.98;69.97
6680;BME280;3376;42.664;23.346;2023-05-29T11:05:05;94347.97;;;22.81;70.48
6680;BME280;3376;42.664;23.346;2023-05-29T11:07:32;94314.34;;;22.72;71.00
6680;BME280;3376;42.664;23.346;2023-05-29T11:10:11;94335.75;;;23.22;70.36
6680;BME280;3376;42.664;23.346;2023-05-29T11:12:55;94332.25;;;23.63;69.89
6680;BME280;3376;42.664;23.346;2023-05-29T11:15:23;94338.41;;;23.94;70.11
6680;BME280;3376;42.664;23.346;2023-05-29T11:17:50;94336.75;;;23.68;71.93
6680;BME280;3376;42.664;23.346;2023-05-29T11:20:28;94335.03;;;23.32;71.55
6680;BME280;3376;42.664;23.346;2023-05-29T11:23:02;94333.03;;;23.02;70.28
6680;BME280;3376;42.664;23.346;2023-05-29T11:25:34;94322.44;;;23.02;71.36
6680;BME280;3376;42.664;23.346;2023-05-29T11:28:03;94288.41;;;23.10;73.41
6680;BME280;3376;42.664;23.346;2023-05-29T11:30:42;94300.69;;;23.42;73.22
6680;BME280;3376;42.664;23.346;2023-05-29T11:33:19;94323.75;;;23.56;72.60
6680;BME280;3376;42.664;23.346;2023-05-29T11:35:50;94331.97;;;23.60;71.92
6680;BME280;3376;42.664;23.346;2023-05-29T11:38:18;94320.81;;;23.48;72.48
6680;BME280;3376;42.664;23.346;2023-05-29T11:40:45;94319.47;;;23.45;72.35
6680;BME280;3376;42.664;23.346;2023-05-29T11:43:12;94324.22;;;23.38;73.14
6680;BME280;3376;42.664;23.346;2023-05-29T11:45:40;94317.84;;;23.29;75.59
6680;BME280;3376;42.664;23.346;2023-05-29T11:48:07;94318.84;;;23.23;73.95
6680;BME280;3376;42.664;23.346;2023-05-29T11:50:36;94311.41;;;23.15;76.87
6680;BME280;3376;42.664;23.346;2023-05-29T11:53:05;94306.59;;;23.02;75.35
6680;BME280;3376;42.664;23.346;2023-05-29T11:55:32;94324.97;;;22.82;76.64
6680;BME280;3376;42.664;23.346;2023-05-29T11:58:00;94330.13;;;22.62;76.27
6680;BME280;3376;42.664;23.346;2023-05-29T12:00:30;94328.75;;;22.23;85.04
6680;BME280;3376;42.664;23.346;2023-05-29T12:02:59;94327.81;;;22.07;89.31
6680;BME280;3376;42.664;23.346;2023-05-29T12:05:29;94327.13;;;21.68;96.13
6680;BME280;3376;42.664;23.346;2023-05-29T12:07:56;94317.47;;;21.09;100.00
6680;BME280;3376;42.664;23.346;2023-05-29T12:10:26;94308.91;;;20.42;100.00
6680;BME280;3376;42.664;23.346;2023-05-29T12:12:54;94326.78;;;19.96;100.00
6680;BME280;3376;42.664;23.346;2023-05-29T12:15:22;94307.69;;;19.55;100.00
6680;BME280;3376;42.664;23.346;2023-05-29T12:17:49;94331.75;;;19.36;100.00
6680;BME280;3376;42.664;23.346;2023-05-29T12:20:19;94337.94;;;19.07;100.00
6680;BME280;3376;42.664;23.346;2023-05-29T12:22:46;94347.22;;;18.86;100.00
6680;BME280;3376;42.664;23.346;2023-05-29T12:25:14;94345.28;;;18.70;100.00
6680;BME280;3376;42.664;23.346;2023-05-29T12:27:42;94307.00;;;18.46;100.00
6680;BME280;3376;42.664;23.346;2023-05-29T12:30:12;94338.00;;;18.60;100.00
6680;BME280;3376;42.664;23.346;2023-05-29T12:32:42;94349.31;;;18.61;100.00
6680;BME280;3376;42.664;23.346;2023-05-29T12:35:13;94360.34;;;18.86;100.00
6680;BME280;3376;42.664;23.346;2023-05-29T12:37:46;94358.63;;;19.03;100.00
6680;BME280;3376;42.664;23.346;2023-05-29T12:40:20;94367.03;;;19.28;100.00
6680;BME280;3376;42.664;23.346;2023-05-29T12:42:48;94372.06;;;19.41;100.00
6680;BME280;3376;42.664;23.346;2023-05-29T12:45:17;94373.06;;;19.40;100.00
6680;BME280;3376;42.664;23.346;2023-05-29T12:47:45;94364.03;;;19.48;100.00
6680;BME280;3376;42.664;23.346;2023-05-29T12:50:31;94356.34;;;19.58;100.00
6680;BME280;3376;42.664;23.346;2023-05-29T12:53:00;94347.47;;;19.75;100.00
6680;BME280;3376;42.664;23.346;2023-05-29T12:55:28;94357.69;;;19.88;100.00
6680;BME280;3376;42.664;23.346;2023-05-29T12:57:56;94341.13;;;19.88;100.00
6680;BME280;3376;42.664;23.346;2023-05-29T13:00:23;94335.41;;;19.91;100.00
6680;BME280;3376;42.664;23.346;2023-05-29T13:02:50;94339.72;;;20.14;100.00
6680;BME280;3376;42.664;23.346;2023-05-29T13:05:18;94332.97;;;20.18;100.00
6680;BME280;3376;42.664;23.346;2023-05-29T13:07:48;94343.28;;;20.36;100.00
6680;BME280;3376;42.664;23.346;2023-05-29T13:10:16;94337.03;;;20.42;100.00
6680;BME280;3376;42.664;23.346;2023-05-29T13:12:44;94352.91;;;20.63;100.00
6680;BME280;3376;42.664;23.346;2023-05-29T13:15:12;94281.16;;;20.35;100.00